Time;durP1;ratioP1;P1;durP2;ratioP2;P2;SDS_P1;SDS_P2;PMS_P1;PMS_P2;Temp;Humidity;BMP_temperature;BMP_pressure;BME280_temperature;BME280_humidity;BME280_pressure;Samples;Min_cycle;Max_cycle;Signal;HPM_P1;HPM_P2
2022/10/03 00:01:08;;;;;;;4.90;2.13;;;14.10;99.90;;;;;;10042278;28;20037;-61
2022/10/03 00:06:28;;;;;;;4.07;2.33;;;13.90;99.90;;;;;;10044815;28;20040;-62
2022/10/03 00:11:27;;;;;;;2.53;2.05;;;14.00;99.90;;;;;;10050645;28;20487;-61
2022/10/03 00:16:21;;;;;;;3.78;2.63;;;14.00;99.90;;;;;;10048418;28;20044;-62
2022/10/03 00:21:49;;;;;;;3.40;1.90;;;14.00;99.90;;;;;;10034490;28;20048;-61
2022/10/03 00:27:08;;;;;;;4.25;2.33;;;13.90;99.90;;;;;;10034922;28;20030;-61
2022/10/03 00:32:10;;;;;;;4.20;2.30;;;14.00;99.90;;;;;;10005543;28;20038;-63
2022/10/03 00:37:21;;;;;;;2.83;1.95;;;13.90;99.90;;;;;;10015161;28;20029;-62
2022/10/03 00:42:36;;;;;;;2.90;2.22;;;13.90;99.90;;;;;;10010522;28;20369;-62
2022/10/03 00:48:00;;;;;;;4.32;2.55;;;13.70;99.90;;;;;;9989239;28;20026;-62
2022/10/03 00:53:23;;;;;;;3.47;2.50;;;13.70;99.90;;;;;;10004077;28;20030;-65
2022/10/03 00:58:28;;;;;;;4.68;2.67;;;13.60;99.90;;;;;;10002132;28;20018;-63
2022/10/03 01:03:28;;;;;;;4.23;3.30;;;13.50;99.90;;;;;;10013418;28;20400;-63
2022/10/03 01:08:38;;;;;;;2.72;2.33;;;13.40;99.90;;;;;;10008001;28;20105;-62
2022/10/03 01:13:53;;;;;;;5.47;3.35;;;13.30;99.90;;;;;;10001573;28;20090;-61
2022/10/03 01:18:53;;;;;;;3.95;2.72;;;13.30;99.90;;;;;;10002399;28;20037;-63
2022/10/03 01:23:55;;;;;;;3.88;2.35;;;13.30;99.90;;;;;;9984836;28;20053;-65
2022/10/03 01:35:08;;;;;;;4.47;2.58;;;13.40;99.90;;;;;;10028645;28;20037;-63
2022/10/03 01:40:07;;;;;;;4.72;3.38;;;13.30;99.90;;;;;;10050913;28;20500;-60
2022/10/03 01:45:01;;;;;;;3.72;2.50;;;13.40;99.90;;;;;;10045466;28;20512;-66
2022/10/03 01:50:25;;;;;;;3.92;2.50;;;13.30;99.90;;;;;;10043235;28;20056;-66
2022/10/03 01:55:35;;;;;;;4.55;2.65;;;13.30;99.90;;;;;;10049880;28;20390;-62
2022/10/03 02:00:33;;;;;;;4.85;2.45;;;13.20;99.90;;;;;;10037382;28;20037;-66
2022/10/03 02:05:48;;;;;;;3.50;2.78;;;13.20;99.90;;;;;;10046672;28;20064;-66
2022/10/03 02:10:54;;;;;;;5.25;3.47;;;13.20;99.90;;;;;;10044407;28;20061;-65
2022/10/03 02:16:01;;;;;;;3.40;1.92;;;13.10;99.90;;;;;;10043207;28;20101;-63
2022/10/03 02:21:12;;;;;;;2.65;2.03;;;13.10;99.90;;;;;;10040135;28;20049;-64
2022/10/03 02:26:21;;;;;;;5.32;2.38;;;13.00;99.90;;;;;;10042495;28;20028;-63
2022/10/03 02:31:24;;;;;;;4.55;2.75;;;12.90;99.90;;;;;;10045181;28;20053;-64
2022/10/03 02:36:40;;;;;;;5.35;2.88;;;12.90;99.90;;;;;;10058542;28;20021;-66
2022/10/03 02:41:40;;;;;;;6.95;2.70;;;12.80;99.90;;;;;;10046145;28;20034;-63
2022/10/03 02:46:57;;;;;;;4.95;3.03;;;12.90;99.90;;;;;;10045929;28;20099;-69
2022/10/03 02:52:32;;;;;;;3.17;2.50;;;12.80;99.90;;;;;;10052175;28;20469;-61
2022/10/03 02:57:47;;;;;;;3.45;2.28;;;12.90;99.90;;;;;;10021389;28;20050;-61
2022/10/03 03:03:00;;;;;;;4.53;2.42;;;12.90;99.90;;;;;;10054702;28;20942;-61
2022/10/03 03:08:12;;;;;;;3.75;2.42;;;12.90;99.90;;;;;;10047003;28;20036;-62
2022/10/03 03:13:21;;;;;;;3.67;2.55;;;12.90;99.90;;;;;;10047762;28;20026;-61
2022/10/03 03:18:38;;;;;;;4.50;2.67;;;12.80;99.90;;;;;;10045034;28;20352;-62
2022/10/03 03:23:44;;;;;;;4.63;2.75;;;12.80;99.90;;;;;;10044074;28;20511;-62
2022/10/03 03:28:58;;;;;;;4.43;3.03;;;12.70;99.90;;;;;;10044824;28;20508;-65
2022/10/03 03:33:52;;;;;;;5.45;2.92;;;12.70;99.90;;;;;;10045593;28;20034;-63
2022/10/03 03:39:11;;;;;;;4.47;2.90;;;12.60;99.90;;;;;;10055425;28;20010;-62
2022/10/03 03:44:30;;;;;;;4.65;2.83;;;12.60;99.90;;;;;;10024416;28;20048;-67
2022/10/03 03:49:58;;;;;;;5.22;3.05;;;12.60;99.90;;;;;;10045212;28;20033;-65
2022/10/03 03:55:23;;;;;;;6.22;3.60;;;12.60;99.90;;;;;;10036178;28;20552;-66
2022/10/03 04:00:20;;;;;;;5.82;3.13;;;12.50;99.90;;;;;;10031634;28;20083;-66
2022/10/03 04:05:49;;;;;;;6.90;2.70;;;12.60;99.90;;;;;;10054835;28;20274;-66
2022/10/03 04:11:05;;;;;;;6.40;2.65;;;12.60;99.90;;;;;;9948223;28;20566;-66
2022/10/03 04:16:03;;;;;;;;;;;12.50;99.90;;;;;;10044612;28;20052;-66
2022/10/03 04:21:21;;;;;;;4.38;2.25;;;12.40;99.90;;;;;;10046727;28;19916;-64
2022/10/03 04:26:36;;;;;;;6.10;3.03;;;12.40;99.90;;;;;;10043202;28;20034;-65
2022/10/03 04:31:56;;;;;;;5.90;3.20;;;12.40;99.90;;;;;;10042815;28;20427;-65
2022/10/03 04:37:23;;;;;;;3.47;2.78;;;12.40;99.90;;;;;;10054280;28;20025;-67
2022/10/03 04:42:26;;;;;;;5.78;2.40;;;12.50;99.90;;;;;;10049269;28;20079;-66
2022/10/03 04:47:29;;;;;;;10.35;4.68;;;12.50;99.90;;;;;;10046444;28;20116;-66
2022/10/03 04:52:36;;;;;;;5.65;3.20;;;12.60;99.90;;;;;;10040238;28;20040;-66
2022/10/03 04:57:55;;;;;;;5.10;3.38;;;12.50;99.90;;;;;;10043011;28;20397;-66
2022/10/03 05:02:58;;;;;;;4.53;3.25;;;12.10;99.90;;;;;;10054574;28;20069;-65
2022/10/03 05:08:05;;;;;;;4.03;2.95;;;12.10;99.90;;;;;;10047389;28;20071;-66
2022/10/03 05:13:18;;;;;;;4.18;2.97;;;11.80;99.90;;;;;;10044443;28;20033;-65
2022/10/03 05:18:12;;;;;;;3.70;2.35;;;12.00;99.90;;;;;;10047726;28;20033;-63
2022/10/03 05:23:46;;;;;;;5.15;2.88;;;12.00;99.90;;;;;;10045449;28;20026;-62
2022/10/03 05:29:02;;;;;;;4.25;2.67;;;12.00;99.90;;;;;;10043406;28;20040;-63
2022/10/03 05:34:01;;;;;;;;;;;11.80;99.90;;;;;;10059221;28;20396;-63
2022/10/03 05:39:30;;;;;;;4.15;2.50;;;11.60;99.90;;;;;;10058241;28;19927;-64
2022/10/03 05:44:48;;;;;;;3.85;2.40;;;11.50;99.90;;;;;;10003868;28;20060;-66
2022/10/03 05:49:47;;;;;;;4.13;2.28;;;11.40;99.90;;;;;;10044467;28;20038;-64
2022/10/03 05:55:03;;;;;;;3.70;2.20;;;11.90;99.90;;;;;;10039388;28;20041;-66
2022/10/03 06:00:15;;;;;;;5.40;2.50;;;12.20;99.90;;;;;;10043967;28;20136;-66
2022/10/03 06:05:47;;;;;;;4.40;2.17;;;12.10;99.90;;;;;;10057354;28;20063;-64
2022/10/03 06:10:40;;;;;;;4.20;2.05;;;12.00;99.90;;;;;;10040759;28;20765;-64
2022/10/03 06:15:53;;;;;;;5.22;2.63;;;12.00;99.90;;;;;;10048524;28;20120;-65
2022/10/03 06:20:50;;;;;;;3.92;2.17;;;11.90;99.90;;;;;;10044175;28;20196;-64
2022/10/03 06:26:05;;;;;;;6.60;3.10;;;12.10;99.90;;;;;;10058808;28;20044;-65
2022/10/03 06:30:56;;;;;;;6.53;2.88;;;12.20;99.90;;;;;;10047802;28;20057;-65
2022/10/03 06:36:10;;;;;;;4.97;2.25;;;12.30;99.90;;;;;;10039111;28;20585;-66
2022/10/03 06:41:25;;;;;;;6.75;3.13;;;12.30;99.90;;;;;;10052806;28;20108;-65
2022/10/03 06:46:49;;;;;;;7.18;3.30;;;12.30;99.90;;;;;;10050802;28;20318;-64
2022/10/03 06:51:51;;;;;;;7.35;3.58;;;12.30;99.90;;;;;;10045321;28;20128;-66
2022/10/03 06:57:07;;;;;;;9.80;4.35;;;12.30;99.90;;;;;;10046614;28;20443;-69
2022/10/03 07:02:28;;;;;;;8.98;3.40;;;12.30;99.90;;;;;;10048657;28;20049;-65
2022/10/03 07:07:36;;;;;;;6.80;3.45;;;12.30;99.90;;;;;;10048294;28;20068;-65
2022/10/03 07:12:46;;;;;;;6.72;3.85;;;12.20;99.90;;;;;;10054026;28;20645;-66
2022/10/03 07:17:46;;;;;;;6.82;3.75;;;12.20;99.90;;;;;;10048681;28;20073;-71
2022/10/03 07:23:14;;;;;;;8.57;4.40;;;12.30;99.90;;;;;;10051993;28;20032;-65
2022/10/03 07:28:24;;;;;;;10.95;4.38;;;12.40;99.90;;;;;;10050279;28;20099;-68
2022/10/03 07:33:43;;;;;;;6.45;4.18;;;12.50;99.90;;;;;;10044741;28;20037;-64
2022/10/03 07:38:59;;;;;;;9.88;5.30;;;12.70;99.90;;;;;;9984339;28;20121;-66
2022/10/03 07:44:27;;;;;;;8.13;4.32;;;12.70;99.90;;;;;;10035572;28;20471;-64
2022/10/03 07:49:45;;;;;;;6.82;3.67;;;12.70;99.90;;;;;;10046436;28;20136;-67
2022/10/03 07:55:10;;;;;;;7.03;3.67;;;12.80;99.90;;;;;;10041772;28;20052;-64
2022/10/03 08:00:05;;;;;;;10.27;4.22;;;12.90;99.90;;;;;;10040197;28;20025;-62
2022/10/03 08:05:24;;;;;;;8.48;3.20;;;12.90;99.90;;;;;;10052394;28;20478;-63
2022/10/03 08:10:29;;;;;;;7.28;3.50;;;13.10;99.90;;;;;;10047762;28;20025;-61
2022/10/03 08:15:52;;;;;;;5.18;3.08;;;13.30;99.90;;;;;;10043461;28;20026;-64
2022/10/03 08:20:54;;;;;;;7.28;3.05;;;13.30;99.90;;;;;;10028614;28;20018;-64
2022/10/03 08:25:44;;;;;;;8.15;3.90;;;13.50;99.90;;;;;;10042279;28;20029;-67
2022/10/03 08:30:41;;;;;;;7.22;4.35;;;13.60;99.90;;;;;;10048330;28;20060;-63
2022/10/03 08:35:38;;;;;;;6.97;2.97;;;13.60;99.90;;;;;;10052081;28;20028;-60
2022/10/03 08:40:56;;;;;;;5.32;3.20;;;13.50;99.90;;;;;;10049877;28;20029;-61
2022/10/03 08:45:53;;;;;;;5.80;3.47;;;13.60;99.90;;;;;;10047020;28;20021;-60
2022/10/03 08:51:19;;;;;;;6.53;3.65;;;13.40;99.90;;;;;;10048411;28;20033;-62
2022/10/03 08:56:13;;;;;;;;;;;13.60;99.90;;;;;;10044341;28;20140;-60
2022/10/03 09:01:32;;;;;;;6.82;3.25;;;13.70;99.90;;;;;;10051087;28;19913;-61
2022/10/03 09:06:26;;;;;;;6.00;3.28;;;14.00;99.90;;;;;;10049592;28;20045;-61
2022/10/03 09:11:36;;;;;;;5.80;3.60;;;14.10;99.90;;;;;;10048252;28;20037;-61
2022/10/03 09:16:36;;;;;;;7.07;3.75;;;14.10;99.90;;;;;;10042208;28;20032;-63
2022/10/03 09:21:53;;;;;;;8.85;3.53;;;14.30;99.90;;;;;;10039274;28;20026;-61
2022/10/03 09:27:04;;;;;;;5.82;4.07;;;14.30;99.90;;;;;;10033250;28;20084;-60
2022/10/03 09:32:32;;;;;;;8.18;3.60;;;14.20;99.90;;;;;;9977631;28;20065;-60
2022/10/03 09:37:56;;;;;;;7.70;3.83;;;14.20;99.90;;;;;;9956247;28;20833;-64
2022/10/03 09:43:02;;;;;;;6.63;3.75;;;14.40;99.90;;;;;;10002957;28;20531;-62
2022/10/03 09:48:21;;;;;;;6.75;4.28;;;14.70;99.90;;;;;;9992230;28;20033;-61
2022/10/03 09:53:43;;;;;;;5.57;3.45;;;14.90;99.90;;;;;;9994302;28;20566;-63
2022/10/03 09:58:55;;;;;;;5.78;4.57;;;14.90;99.90;;;;;;9992259;28;20034;-62
2022/10/03 10:03:46;;;;;;;6.95;4.30;;;15.00;99.90;;;;;;10008397;28;20034;-60
2022/10/03 10:09:07;;;;;;;8.25;5.75;;;15.40;99.90;;;;;;10010235;28;20092;-61
2022/10/03 10:14:07;;;;;;;7.25;4.25;;;15.60;99.90;;;;;;10013883;28;20058;-61
2022/10/03 10:19:06;;;;;;;6.03;3.78;;;15.60;99.90;;;;;;9999168;28;20051;-60
2022/10/03 10:24:35;;;;;;;6.03;3.72;;;15.30;99.90;;;;;;10010216;28;20032;-59
2022/10/03 10:30:12;;;;;;;6.95;3.53;;;15.50;99.90;;;;;;10015547;28;20046;-60
2022/10/03 10:35:40;;;;;;;10.23;4.05;;;15.90;99.90;;;;;;10028318;28;20044;-60
2022/10/03 10:40:45;;;;;;;6.82;4.22;;;16.40;99.90;;;;;;10054501;28;20166;-60
2022/10/03 10:45:54;;;;;;;8.50;3.55;;;16.70;99.90;;;;;;10051543;28;20518;-60
2022/10/03 10:51:05;;;;;;;7.18;4.07;;;16.10;99.90;;;;;;10048674;28;20451;-60
2022/10/03 10:56:35;;;;;;;6.85;3.17;;;16.10;99.90;;;;;;10046436;28;20107;-59
2022/10/03 11:01:47;;;;;;;6.43;3.50;;;16.50;99.90;;;;;;10050689;28;20121;-59
2022/10/03 11:07:03;;;;;;;7.13;3.67;;;16.30;99.90;;;;;;10053671;28;20033;-60
2022/10/03 11:12:31;;;;;;;7.88;3.67;;;16.00;99.90;;;;;;10052489;28;20118;-59
2022/10/03 11:17:43;;;;;;;7.93;3.50;;;16.40;99.90;;;;;;10032081;28;20100;-60
2022/10/03 11:23:10;;;;;;;7.93;4.00;;;16.90;99.90;;;;;;10045111;28;20076;-60
2022/10/03 11:28:51;;;;;;;5.45;3.10;;;17.40;99.90;;;;;;10029279;28;20049;-60
2022/10/03 11:33:57;;;;;;;5.50;2.78;;;16.90;99.90;;;;;;10011233;28;20644;-60
2022/10/03 11:39:15;;;;;;;6.15;3.17;;;16.40;99.90;;;;;;10047279;28;20037;-61
2022/10/03 11:44:32;;;;;;;6.72;2.45;;;16.40;99.90;;;;;;10049837;28;20028;-62
2022/10/03 11:49:26;;;;;;;7.43;2.42;;;16.60;99.90;;;;;;10048535;28;20042;-61
2022/10/03 11:54:31;;;;;;;5.78;3.35;;;16.80;99.90;;;;;;10046195;28;20148;-64
2022/10/03 11:59:38;;;;;;;6.78;2.78;;;17.00;99.90;;;;;;10039894;28;20037;-58
2022/10/03 12:04:45;;;;;;;4.35;2.78;;;17.10;99.90;;;;;;10052797;28;20099;-62
2022/10/03 12:10:04;;;;;;;7.95;3.13;;;17.10;99.90;;;;;;10052981;28;20037;-60
2022/10/03 12:15:19;;;;;;;4.68;3.05;;;17.30;99.90;;;;;;10037924;28;20396;-61
2022/10/03 12:20:37;;;;;;;6.88;4.22;;;17.60;99.90;;;;;;10046400;28;20069;-60
2022/10/03 12:25:33;;;;;;;5.45;2.88;;;17.70;99.90;;;;;;10047910;28;20032;-61
2022/10/03 12:30:26;;;;;;;8.35;2.75;;;17.80;99.90;;;;;;10049733;28;20046;-59
2022/10/03 12:35:20;;;;;;;6.68;2.60;;;18.10;99.90;;;;;;10043569;28;20499;-60
2022/10/03 12:40:29;;;;;;;4.18;2.95;;;18.50;99.90;;;;;;10053362;28;20487;-64
2022/10/03 12:45:26;;;;;;;6.90;3.03;;;18.70;99.90;;;;;;10045754;28;20097;-60
2022/10/03 12:50:47;;;;;;;4.30;3.00;;;17.90;99.90;;;;;;10040425;28;20031;-59
2022/10/03 12:56:03;;;;;;;6.70;2.35;;;18.60;99.90;;;;;;10036236;28;20029;-60
2022/10/03 13:01:14;;;;;;;6.22;3.45;;;19.50;99.90;;;;;;10049067;28;20132;-59
2022/10/03 13:06:19;;;;;;;5.57;2.50;;;19.70;99.90;;;;;;10041903;28;20495;-62
2022/10/03 13:11:43;;;;;;;3.92;1.95;;;19.90;99.90;;;;;;10048201;28;20512;-61
2022/10/03 13:16:44;;;;;;;5.93;2.40;;;20.10;99.90;;;;;;10048584;28;20332;-61
2022/10/03 13:21:45;;;;;;;2.97;2.20;;;20.50;99.90;;;;;;10048876;28;20028;-62
2022/10/03 13:26:36;;;;;;;5.03;2.55;;;21.30;99.90;;;;;;10041820;28;20060;-60
2022/10/03 13:31:32;;;;;;;5.32;3.10;;;21.90;99.90;;;;;;10047788;28;20053;-63
2022/10/03 13:36:43;;;;;;;5.22;2.58;;;22.60;99.90;;;;;;10046449;28;20379;-61
2022/10/03 13:41:58;;;;;;;5.40;2.58;;;22.60;99.90;;;;;;10039063;28;20037;-64
2022/10/03 13:47:02;;;;;;;6.15;2.35;;;23.20;99.60;;;;;;10034603;28;20025;-60
2022/10/03 13:52:14;;;;;;;6.85;2.50;;;23.50;99.20;;;;;;10056739;28;20503;-65
2022/10/03 13:57:28;;;;;;;4.10;2.10;;;23.20;98.10;;;;;;10056640;28;20049;-64
2022/10/03 14:02:47;;;;;;;5.40;2.20;;;22.70;97.40;;;;;;10052313;28;20026;-58
2022/10/03 14:08:15;;;;;;;7.57;2.33;;;23.20;97.00;;;;;;10051770;28;20036;-58
2022/10/03 14:13:30;;;;;;;3.03;1.70;;;23.60;96.30;;;;;;10053081;28;20164;-62
2022/10/03 14:18:39;;;;;;;5.47;1.85;;;24.30;95.50;;;;;;10033778;28;20300;-62
2022/10/03 14:24:05;;;;;;;6.10;1.67;;;25.30;94.30;;;;;;10044612;28;20052;-61
2022/10/03 14:29:09;;;;;;;3.40;1.80;;;25.60;92.50;;;;;;10046679;28;20128;-61
2022/10/03 14:34:32;;;;;;;5.20;2.17;;;24.80;92.80;;;;;;10059043;28;20545;-62
2022/10/03 14:39:47;;;;;;;5.10;1.80;;;26.10;90.80;;;;;;10051282;28;20022;-60
2022/10/03 14:44:51;;;;;;;4.70;1.92;;;27.20;86.60;;;;;;10057538;28;20087;-61
2022/10/03 14:49:55;;;;;;;4.60;1.92;;;27.10;85.10;;;;;;10057083;28;20463;-62
2022/10/03 14:54:50;;;;;;;3.38;2.30;;;27.50;81.50;;;;;;10058280;28;20112;-59
2022/10/03 14:59:41;;;;;;;2.78;2.00;;;27.50;79.70;;;;;;10049906;28;20537;-60
2022/10/03 15:04:38;;;;;;;6.90;2.85;;;28.10;78.40;;;;;;10054940;28;20033;-62
2022/10/03 15:09:38;;;;;;;5.07;2.65;;;28.30;75.50;;;;;;10050922;28;20033;-61
2022/10/03 15:14:33;;;;;;;3.85;2.00;;;28.90;73.80;;;;;;10051109;28;20021;-62
2022/10/03 15:19:46;;;;;;;3.45;2.15;;;29.10;72.60;;;;;;10051827;28;20049;-62
2022/10/03 15:24:39;;;;;;;5.57;2.40;;;29.00;71.20;;;;;;10050401;28;20519;-60
2022/10/03 15:29:31;;;;;;;;;;;29.80;69.90;;;;;;10052461;28;20041;-65
2022/10/03 15:34:32;;;;;;;2.28;2.08;;;29.40;69.10;;;;;;10046785;28;19920;-58
2022/10/03 15:39:36;;;;;;;4.15;1.58;;;29.80;68.00;;;;;;10051126;28;20026;-60
2022/10/03 15:44:38;;;;;;;;;;;28.60;67.60;;;;;;10045126;28;20036;-62
2022/10/03 15:49:30;;;;;;;4.80;1.55;;;27.70;67.90;;;;;;10034829;28;19927;-61
2022/10/03 15:54:26;;;;;;;4.20;1.85;;;27.40;68.10;;;;;;10035110;28;20105;-60
2022/10/03 15:59:35;;;;;;;5.43;2.03;;;26.30;67.80;;;;;;10041173;28;20185;-60
2022/10/03 16:04:32;;;;;;;4.47;2.20;;;25.60;67.90;;;;;;10036366;28;20025;-61
2022/10/03 16:09:45;;;;;;;3.58;1.77;;;24.30;68.90;;;;;;10050908;28;20430;-61
2022/10/03 16:14:44;;;;;;;4.25;1.60;;;21.40;73.90;;;;;;10049785;28;20557;-71
2022/10/03 16:19:40;;;;;;;6.22;1.95;;;20.10;75.80;;;;;;10033994;28;20484;-69
2022/10/03 16:24:40;;;;;;;3.25;2.63;;;19.40;77.00;;;;;;10047681;28;20029;-70
2022/10/03 16:29:37;;;;;;;5.78;1.88;;;19.00;78.20;;;;;;10056112;28;20064;-69
2022/10/03 16:34:30;;;;;;;2.78;1.88;;;18.60;79.40;;;;;;10056698;28;20427;-68
2022/10/03 16:39:32;;;;;;;5.13;2.25;;;18.30;80.90;;;;;;10055420;28;20021;-69
2022/10/03 16:44:49;;;;;;;3.28;1.92;;;18.20;82.10;;;;;;10054117;28;20036;-67
2022/10/03 16:50:23;;;;;;;2.95;2.35;;;18.00;83.50;;;;;;10048986;28;20120;-69
2022/10/03 16:55:30;;;;;;;6.43;2.45;;;17.90;84.30;;;;;;10036318;28;20017;-69
2022/10/03 17:00:33;;;;;;;5.22;2.33;;;17.70;85.20;;;;;;10040187;28;20049;-68
2022/10/03 17:05:24;;;;;;;6.45;2.13;;;17.60;86.40;;;;;;10038389;28;20042;-67
2022/10/03 17:10:30;;;;;;;7.95;2.75;;;17.40;87.20;;;;;;10049305;28;20033;-68
2022/10/03 17:15:26;;;;;;;2.70;2.13;;;17.30;88.50;;;;;;10038871;28;20045;-69
2022/10/03 17:20:16;;;;;;;;;;;17.20;89.10;;;;;;10029753;28;20177;-72
2022/10/03 17:25:27;;;;;;;7.15;2.08;;;17.10;90.20;;;;;;10037986;28;20488;-69
2022/10/03 17:30:46;;;;;;;4.40;1.80;;;17.00;90.50;;;;;;10038464;28;20179;-71
2022/10/03 17:35:56;;;;;;;3.78;2.03;;;16.90;91.10;;;;;;10051885;28;20507;-69
2022/10/03 17:41:13;;;;;;;4.07;2.63;;;16.80;91.60;;;;;;10049864;28;20480;-70
2022/10/03 17:46:11;;;;;;;4.03;1.92;;;16.70;92.20;;;;;;10046033;28;20029;-73
2022/10/03 17:51:23;;;;;;;5.53;2.17;;;16.70;92.40;;;;;;10037246;28;20026;-71
2022/10/03 17:56:19;;;;;;;3.85;1.98;;;16.60;93.10;;;;;;10051981;28;20030;-70
2022/10/03 18:01:15;;;;;;;3.10;2.38;;;16.60;93.40;;;;;;10042276;28;20071;-75
2022/10/03 18:06:36;;;;;;;5.65;2.25;;;16.50;93.70;;;;;;10044303;28;20069;-75
2022/10/03 18:11:30;;;;;;;4.82;2.75;;;16.50;94.10;;;;;;10035160;28;20042;-70
2022/10/03 18:16:34;;;;;;;4.93;2.05;;;16.50;94.30;;;;;;10030923;28;20033;-76
2022/10/03 18:21:37;;;;;;;8.45;3.42;;;16.40;94.60;;;;;;10048887;28;20024;-70
2022/10/03 18:26:42;;;;;;;4.88;2.60;;;16.40;95.00;;;;;;10042929;28;20059;-75
2022/10/03 18:31:38;;;;;;;7.57;2.85;;;16.60;95.30;;;;;;10034748;28;20499;-76
2022/10/03 18:36:36;;;;;;;2.95;2.22;;;16.30;95.60;;;;;;10038586;28;20040;-70
2022/10/03 18:41:27;;;;;;;5.20;2.15;;;16.20;95.90;;;;;;10057108;28;20037;-73
2022/10/03 18:46:29;;;;;;;6.00;2.42;;;16.10;96.20;;;;;;10038297;28;20045;-68
2022/10/03 18:51:49;;;;;;;6.43;2.30;;;16.10;96.30;;;;;;10039687;28;20128;-74
2022/10/03 18:56:42;;;;;;;4.95;2.13;;;16.00;96.40;;;;;;10030016;28;20402;-71
2022/10/03 19:01:54;;;;;;;9.38;2.55;;;15.90;96.80;;;;;;10042259;28;20033;-75
2022/10/03 19:06:52;;;;;;;4.93;2.28;;;15.90;97.00;;;;;;10052437;28;20017;-73
2022/10/03 19:11:46;;;;;;;5.53;2.40;;;16.00;96.90;;;;;;10050993;28;20115;-70
2022/10/03 19:16:49;;;;;;;7.55;2.42;;;15.90;97.20;;;;;;10042844;28;20017;-74
2022/10/03 19:21:42;;;;;;;6.20;2.60;;;15.80;97.60;;;;;;10047788;28;20124;-73
2022/10/03 19:26:34;;;;;;;4.78;2.25;;;15.80;97.80;;;;;;10047555;28;20032;-72
2022/10/03 19:31:39;;;;;;;8.60;2.05;;;15.70;98.10;;;;;;10038543;28;20073;-75
2022/10/03 19:36:35;;;;;;;4.72;2.72;;;15.60;98.20;;;;;;10035439;28;20407;-75
2022/10/03 19:41:31;;;;;;;7.72;2.60;;;15.50;98.50;;;;;;10034972;28;20501;-73
2022/10/03 19:46:43;;;;;;;5.15;2.35;;;15.60;98.40;;;;;;10052692;28;20092;-73
2022/10/03 19:51:33;;;;;;;6.50;2.63;;;15.60;98.60;;;;;;10040292;28;20034;-75
2022/10/03 19:56:29;;;;;;;2.63;2.38;;;15.50;98.60;;;;;;10050596;28;20025;-71
2022/10/03 20:01:20;;;;;;;3.80;2.28;;;15.50;98.80;;;;;;10051534;28;20118;-75
2022/10/03 20:06:11;;;;;;;5.15;2.20;;;15.30;99.00;;;;;;10049120;28;20108;-74
2022/10/03 20:11:30;;;;;;;4.30;2.60;;;15.20;99.10;;;;;;10052694;28;20064;-74
2022/10/03 20:16:24;;;;;;;4.13;2.20;;;15.20;99.20;;;;;;10035004;28;20046;-71
2022/10/03 20:21:24;;;;;;;4.97;2.58;;;15.20;99.30;;;;;;10040066;28;20029;-76
2022/10/03 20:26:15;;;;;;;4.15;2.58;;;15.10;99.50;;;;;;10038899;28;20202;-70
2022/10/03 20:31:06;;;;;;;5.35;2.25;;;15.00;99.70;;;;;;10044826;28;20061;-77
2022/10/03 20:36:25;;;;;;;5.93;3.20;;;15.00;99.80;;;;;;10032884;28;20104;-78
2022/10/03 20:41:22;;;;;;;8.23;2.90;;;15.00;99.90;;;;;;10042233;28;20106;-79
2022/10/03 20:46:44;;;;;;;5.80;3.17;;;15.00;99.90;;;;;;10044291;28;20475;-74
2022/10/03 20:52:05;;;;;;;6.40;2.50;;;15.00;99.90;;;;;;10038346;28;20453;-77
2022/10/03 20:56:58;;;;;;;5.95;2.55;;;15.00;99.90;;;;;;10044686;28;20038;-75
2022/10/03 21:01:59;;;;;;;6.22;3.22;;;14.80;99.90;;;;;;10032558;28;20711;-76
2022/10/03 21:07:07;;;;;;;10.88;3.10;;;14.70;99.90;;;;;;10051697;28;20014;-71
2022/10/03 21:11:58;;;;;;;11.35;3.45;;;14.70;99.90;;;;;;10052564;28;20400;-72
2022/10/03 21:16:51;;;;;;;6.32;3.10;;;14.50;99.90;;;;;;10046141;28;20037;-70
2022/10/03 21:21:50;;;;;;;7.35;2.78;;;14.60;99.90;;;;;;10047558;28;20034;-67
2022/10/03 21:26:54;;;;;;;5.32;3.75;;;14.60;99.90;;;;;;10046496;28;20025;-67
2022/10/03 21:32:13;;;;;;;7.63;3.15;;;14.60;99.90;;;;;;10044472;28;20069;-66
2022/10/03 21:37:17;;;;;;;5.20;2.67;;;14.50;99.90;;;;;;10032625;28;20080;-71
2022/10/03 21:42:34;;;;;;;7.32;4.30;;;14.50;99.90;;;;;;10035396;28;20021;-69
2022/10/03 21:47:38;;;;;;;6.68;2.80;;;14.40;99.90;;;;;;10028457;28;20014;-76
2022/10/03 21:53:08;;;;;;;4.75;3.17;;;14.40;99.90;;;;;;10032077;28;20046;-74
2022/10/03 21:58:23;;;;;;;3.92;2.58;;;14.40;99.90;;;;;;10032363;28;20018;-73
2022/10/03 22:03:24;;;;;;;6.43;3.22;;;14.30;99.90;;;;;;10025076;28;20426;-67
2022/10/03 22:08:20;;;;;;;6.82;3.55;;;14.20;99.90;;;;;;10056911;28;20108;-67
2022/10/03 22:13:17;;;;;;;6.07;3.10;;;14.10;99.90;;;;;;10056834;28;20041;-68
2022/10/03 22:18:15;;;;;;;4.22;2.83;;;14.20;99.90;;;;;;10054344;28;20049;-71
2022/10/03 22:23:17;;;;;;;10.32;3.50;;;14.10;99.90;;;;;;10053353;28;20017;-69
2022/10/03 22:28:44;;;;;;;5.03;2.88;;;13.80;99.90;;;;;;10038811;28;20041;-66
2022/10/03 22:33:34;;;;;;;;;;;13.80;99.90;;;;;;10045427;28;20096;-67
2022/10/03 22:38:34;;;;;;;5.22;3.25;;;13.80;99.90;;;;;;10037923;28;19909;-67
2022/10/03 22:43:27;;;;;;;7.43;3.47;;;13.90;99.90;;;;;;10056278;28;20017;-67
2022/10/03 22:48:27;;;;;;;6.85;2.95;;;13.70;99.90;;;;;;10057249;28;20025;-66
2022/10/03 22:53:24;;;;;;;8.57;3.78;;;13.60;99.90;;;;;;10049457;28;20037;-67
2022/10/03 22:58:16;;;;;;;5.72;3.53;;;13.50;99.90;;;;;;10034473;28;20045;-66
2022/10/03 23:03:13;;;;;;;5.32;3.38;;;13.30;99.90;;;;;;10054105;28;20128;-66
2022/10/03 23:08:45;;;;;;;6.45;3.58;;;13.30;99.90;;;;;;10057641;28;20021;-66
2022/10/03 23:13:42;;;;;;;7.07;3.72;;;13.20;99.90;;;;;;10043180;28;20053;-67
2022/10/03 23:18:51;;;;;;;10.70;3.88;;;13.20;99.90;;;;;;10046841;28;20514;-67
2022/10/03 23:24:26;;;;;;;5.43;3.30;;;13.20;99.90;;;;;;10054394;28;20048;-70
2022/10/03 23:29:19;;;;;;;7.40;3.67;;;13.20;99.90;;;;;;10032380;28;20119;-71
2022/10/03 23:34:09;;;;;;;3.85;3.17;;;13.10;99.90;;;;;;10045442;28;20403;-70
2022/10/03 23:39:00;;;;;;;6.05;2.90;;;13.20;99.90;;;;;;10043059;28;20036;-70
2022/10/03 23:43:55;;;;;;;6.32;3.90;;;13.30;99.90;;;;;;10056500;28;20051;-71
2022/10/03 23:48:51;;;;;;;9.05;3.47;;;12.90;99.90;;;;;;10049817;28;20022;-72
2022/10/03 23:53:50;;;;;;;9.65;3.55;;;12.90;99.90;;;;;;10049524;28;20074;-72
2022/10/03 23:58:40;;;;;;;7.90;3.65;;;12.70;99.90;;;;;;10031721;28;20026;-72
